sensor_id;sensor_type;location;lat;lon;timestamp;temperature;humidity
34558;DHT22;24708;48.888;8.736;2023-02-01T06:30:30;4.40;99.90
34558;DHT22;24708;48.888;8.736;2023-02-01T06:32:58;4.70;99.90
34558;DHT22;24708;48.888;8.736;2023-02-01T06:35:25;4.40;99.90
34558;DHT22;24708;48.888;8.736;2023-02-01T06:37:53;3.70;99.90
34558;DHT22;24708;48.888;8.736;2023-02-01T06:40:20;4.40;99.90
34558;DHT22;24708;48.888;8.736;2023-02-01T06:42:48;4.40;99.90
34558;DHT22;24708;48.888;8.736;2023-02-01T06:45:16;4.40;99.90
34558;DHT22;24708;48.888;8.736;2023-02-01T06:47:43;4.40;99.90
34558;DHT22;24708;48.888;8.736;2023-02-01T06:50:11;4.50;99.90
34558;DHT22;24708;48.888;8.736;2023-02-01T06:52:38;3.20;99.90
34558;DHT22;24708;48.888;8.736;2023-02-01T06:55:06;4.50;99.90
34558;DHT22;24708;48.888;8.736;2023-02-01T06:57:33;4.50;99.90
34558;DHT22;24708;48.888;8.736;2023-02-01T07:00:04;4.00;99.90
34558;DHT22;24708;48.888;8.736;2023-02-01T07:02:32;4.50;99.90
34558;DHT22;24708;48.888;8.736;2023-02-01T07:04:59;4.60;99.90
34558;DHT22;24708;48.888;8.736;2023-02-01T07:07:27;4.60;99.90
34558;DHT22;24708;48.888;8.736;2023-02-01T07:09:54;4.70;99.90
34558;DHT22;24708;48.888;8.736;2023-02-01T07:12:21;4.60;99.90
34558;DHT22;24708;48.888;8.736;2023-02-01T07:14:49;4.60;99.90
34558;DHT22;24708;48.888;8.736;2023-02-01T07:17:17;4.60;99.90
34558;DHT22;24708;48.888;8.736;2023-02-01T07:19:44;4.70;99.90
34558;DHT22;24708;48.888;8.736;2023-02-01T07:22:12;4.70;99.90
34558;DHT22;24708;48.888;8.736;2023-02-01T07:24:39;4.70;99.90
34558;DHT22;24708;48.888;8.736;2023-02-01T07:27:07;4.30;99.90
34558;DHT22;24708;48.888;8.736;2023-02-01T07:29:35;4.90;99.90
34558;DHT22;24708;48.888;8.736;2023-02-01T07:32:06;4.70;99.90
34558;DHT22;24708;48.888;8.736;2023-02-01T07:34:33;4.80;99.90
34558;DHT22;24708;48.888;8.736;2023-02-01T07:37:01;4.60;99.90
34558;DHT22;24708;48.888;8.736;2023-02-01T07:39:30;4.80;99.90
34558;DHT22;24708;48.888;8.736;2023-02-01T07:41:59;4.90;99.90
34558;DHT22;24708;48.888;8.736;2023-02-01T07:44:26;4.90;99.90
34558;DHT22;24708;48.888;8.736;2023-02-01T07:46:53;4.90;99.90
34558;DHT22;24708;48.888;8.736;2023-02-01T07:49:21;4.30;99.90
34558;DHT22;24708;48.888;8.736;2023-02-01T07:51:49;4.80;99.90
34558;DHT22;24708;48.888;8.736;2023-02-01T07:54:16;4.80;99.90
34558;DHT22;24708;48.888;8.736;2023-02-01T07:56:44;4.80;99.90
34558;DHT22;24708;48.888;8.736;2023-02-01T07:59:11;4.90;99.90
34558;DHT22;24708;48.888;8.736;2023-02-01T08:01:39;4.90;99.90
34558;DHT22;24708;48.888;8.736;2023-02-01T08:04:09;4.90;99.90
34558;DHT22;24708;48.888;8.736;2023-02-01T08:06:38;4.80;99.90
34558;DHT22;24708;48.888;8.736;2023-02-01T08:09:06;4.80;99.90
34558;DHT22;24708;48.888;8.736;2023-02-01T08:11:35;4.90;99.90
34558;DHT22;24708;48.888;8.736;2023-02-01T08:14:05;5.10;99.90
34558;DHT22;24708;48.888;8.736;2023-02-01T08:16:34;5.10;99.90
34558;DHT22;24708;48.888;8.736;2023-02-01T08:19:03;4.70;99.90
34558;DHT22;24708;48.888;8.736;2023-02-01T08:21:30;5.30;99.90
34558;DHT22;24708;48.888;8.736;2023-02-01T08:24:05;5.50;99.90
34558;DHT22;24708;48.888;8.736;2023-02-01T08:26:40;5.50;99.90
34558;DHT22;24708;48.888;8.736;2023-02-01T08:29:09;5.80;99.90
34558;DHT22;24708;48.888;8.736;2023-02-01T08:31:38;5.70;99.90
34558;DHT22;24708;48.888;8.736;2023-02-01T08:34:08;5.80;99.90
34558;DHT22;24708;48.888;8.736;2023-02-01T08:36:35;5.90;99.90
34558;DHT22;24708;48.888;8.736;2023-02-01T08:39:05;6.00;99.90
34558;DHT22;24708;48.888;8.736;2023-02-01T08:41:37;5.90;99.90
34558;DHT22;24708;48.888;8.736;2023-02-01T08:44:05;5.60;99.90
34558;DHT22;24708;48.888;8.736;2023-02-01T08:46:32;5.70;99.90
34558;DHT22;24708;48.888;8.736;2023-02-01T08:49:00;5.60;99.90
34558;DHT22;24708;48.888;8.736;2023-02-01T08:51:30;5.40;99.90
34558;DHT22;24708;48.888;8.736;2023-02-01T08:53:58;5.20;99.90
34558;DHT22;24708;48.888;8.736;2023-02-01T08:56:25;5.10;99.90
34558;DHT22;24708;48.888;8.736;2023-02-01T08:58:53;5.00;99.90
34558;DHT22;24708;48.888;8.736;2023-02-01T09:01:20;4.80;99.90
34558;DHT22;24708;48.888;8.736;2023-02-01T09:03:52;5.80;99.90
34558;DHT22;24708;48.888;8.736;2023-02-01T09:06:23;5.20;99.90
34558;DHT22;24708;48.888;8.736;2023-02-01T09:08:51;5.30;99.90
34558;DHT22;24708;48.888;8.736;2023-02-01T09:11:19;5.50;99.90
34558;DHT22;24708;48.888;8.736;2023-02-01T09:13:47;5.20;99.90
34558;DHT22;24708;48.888;8.736;2023-02-01T09:16:15;6.20;99.90
34558;DHT22;24708;48.888;8.736;2023-02-01T09:23:58;7.60;99.90
34558;DHT22;24708;48.888;8.736;2023-02-01T09:26:26;8.20;99.90
34558;DHT22;24708;48.888;8.736;2023-02-01T09:29:00;9.30;99.90
34558;DHT22;24708;48.888;8.736;2023-02-01T09:33:58;9.00;99.90
34558;DHT22;24708;48.888;8.736;2023-02-01T09:36:26;7.60;99.90
34558;DHT22;24708;48.888;8.736;2023-02-01T09:38:57;7.50;99.90
34558;DHT22;24708;48.888;8.736;2023-02-01T09:41:48;7.00;99.90
34558;DHT22;24708;48.888;8.736;2023-02-01T09:47:14;7.20;99.90
34558;DHT22;24708;48.888;8.736;2023-02-01T09:49:55;7.80;99.90
34558;DHT22;24708;48.888;8.736;2023-02-01T09:55:25;8.90;99.90
34558;DHT22;24708;48.888;8.736;2023-02-01T09:58:00;9.00;99.90
34558;DHT22;24708;48.888;8.736;2023-02-01T10:00:34;8.90;99.90
34558;DHT22;24708;48.888;8.736;2023-02-01T10:03:02;8.90;99.90
34558;DHT22;24708;48.888;8.736;2023-02-01T10:09:02;8.80;99.90
34558;DHT22;24708;48.888;8.736;2023-02-01T10:12:04;8.50;99.90
34558;DHT22;24708;48.888;8.736;2023-02-01T10:14:49;6.40;99.90
34558;DHT22;24708;48.888;8.736;2023-02-01T10:20:30;6.90;99.90
34558;DHT22;24708;48.888;8.736;2023-02-01T10:23:11;6.60;99.90
34558;DHT22;24708;48.888;8.736;2023-02-01T10:26:24;7.30;99.90
34558;DHT22;24708;48.888;8.736;2023-02-01T10:28:56;6.30;99.90
34558;DHT22;24708;48.888;8.736;2023-02-01T10:31:29;6.30;99.90
34558;DHT22;24708;48.888;8.736;2023-02-01T10:34:00;6.60;99.90
34558;DHT22;24708;48.888;8.736;2023-02-01T10:36:32;6.90;99.90
34558;DHT22;24708;48.888;8.736;2023-02-01T10:39:04;7.10;99.90
34558;DHT22;24708;48.888;8.736;2023-02-01T10:41:36;6.90;99.90
34558;DHT22;24708;48.888;8.736;2023-02-01T10:44:11;6.20;99.90
34558;DHT22;24708;48.888;8.736;2023-02-01T10:46:40;6.70;99.90
34558;DHT22;24708;48.888;8.736;2023-02-01T10:49:16;7.40;99.90
34558;DHT22;24708;48.888;8.736;2023-02-01T10:51:52;7.60;99.90
34558;DHT22;24708;48.888;8.736;2023-02-01T10:54:32;7.60;99.90
34558;DHT22;24708;48.888;8.736;2023-02-01T10:57:00;7.40;99.90
34558;DHT22;24708;48.888;8.736;2023-02-01T10:59:32;7.20;99.90
34558;DHT22;24708;48.888;8.736;2023-02-01T11:02:29;7.00;99.90
34558;DHT22;24708;48.888;8.736;2023-02-01T11:05:01;6.80;99.90
34558;DHT22;24708;48.888;8.736;2023-02-01T11:07:28;7.60;99.90
34558;DHT22;24708;48.888;8.736;2023-02-01T11:09:57;7.10;99.90
34558;DHT22;24708;48.888;8.736;2023-02-01T11:12:33;7.10;99.90
34558;DHT22;24708;48.888;8.736;2023-02-01T11:15:23;7.00;99.90
34558;DHT22;24708;48.888;8.736;2023-02-01T11:18:15;6.90;99.90
34558;DHT22;24708;48.888;8.736;2023-02-01T11:20:45;7.20;99.90
34558;DHT22;24708;48.888;8.736;2023-02-01T11:23:18;7.20;99.90
34558;DHT22;24708;48.888;8.736;2023-02-01T11:25:57;7.50;99.90
34558;DHT22;24708;48.888;8.736;2023-02-01T11:28:27;7.50;99.90
34558;DHT22;24708;48.888;8.736;2023-02-01T11:31:00;7.90;99.90
34558;DHT22;24708;48.888;8.736;2023-02-01T11:33:32;8.40;99.90
34558;DHT22;24708;48.888;8.736;2023-02-01T11:36:19;8.70;99.90
34558;DHT22;24708;48.888;8.736;2023-02-01T11:39:07;8.60;99.90
34558;DHT22;24708;48.888;8.736;2023-02-01T11:42:25;7.70;99.90
34558;DHT22;24708;48.888;8.736;2023-02-01T11:44:44;7.50;99.90
34558;DHT22;24708;48.888;8.736;2023-02-01T11:47:20;6.90;99.90
34558;DHT22;24708;48.888;8.736;2023-02-01T11:49:52;6.60;99.90
34558;DHT22;24708;48.888;8.736;2023-02-01T11:52:42;7.30;99.90
34558;DHT22;24708;48.888;8.736;2023-02-01T11:55:39;7.00;99.90
34558;DHT22;24708;48.888;8.736;2023-02-01T12:01:19;7.90;99.90
34558;DHT22;24708;48.888;8.736;2023-02-01T12:04:11;7.30;99.90
34558;DHT22;24708;48.888;8.736;2023-02-01T12:06:53;7.40;99.90
34558;DHT22;24708;48.888;8.736;2023-02-01T12:12:46;6.90;99.90
34558;DHT22;24708;48.888;8.736;2023-02-01T12:15:25;6.80;99.90
34558;DHT22;24708;48.888;8.736;2023-02-01T12:32:46;6.30;99.90
34558;DHT22;24708;48.888;8.736;2023-02-01T12:35:42;6.30;99.90
34558;DHT22;24708;48.888;8.736;2023-02-01T12:41:20;6.00;99.90
34558;DHT22;24708;48.888;8.736;2023-02-01T12:43:59;6.00;99.90
34558;DHT22;24708;48.888;8.736;2023-02-01T12:46:32;5.80;99.90
34558;DHT22;24708;48.888;8.736;2023-02-01T12:49:11;5.70;99.90
34558;DHT22;24708;48.888;8.736;2023-02-01T12:51:44;5.70;99.90
34558;DHT22;24708;48.888;8.736;2023-02-01T12:54:20;6.20;99.90
34558;DHT22;24708;48.888;8.736;2023-02-01T12:56:53;6.20;99.90
34558;DHT22;24708;48.888;8.736;2023-02-01T12:59:28;6.40;99.90
34558;DHT22;24708;48.888;8.736;2023-02-01T13:02:22;6.20;99.90
34558;DHT22;24708;48.888;8.736;2023-02-01T13:05:03;6.30;99.90
34558;DHT22;24708;48.888;8.736;2023-02-01T13:07:39;6.30;99.90
34558;DHT22;24708;48.888;8.736;2023-02-01T13:12:59;6.10;99.90
34558;DHT22;24708;48.888;8.736;2023-02-01T13:15:33;6.10;99.90
34558;DHT22;24708;48.888;8.736;2023-02-01T13:18:05;6.20;99.90
34558;DHT22;24708;48.888;8.736;2023-02-01T13:20:39;6.30;99.90
34558;DHT22;24708;48.888;8.736;2023-02-01T13:23:46;6.10;99.90
34558;DHT22;24708;48.888;8.736;2023-02-01T13:26:02;6.20;99.90
34558;DHT22;24708;48.888;8.736;2023-02-01T13:28:51;6.00;99.90
34558;DHT22;24708;48.888;8.736;2023-02-01T13:34:51;5.90;99.90
34558;DHT22;24708;48.888;8.736;2023-02-01T13:37:48;5.90;99.90
34558;DHT22;24708;48.888;8.736;2023-02-01T13:40:41;6.00;99.90
34558;DHT22;24708;48.888;8.736;2023-02-01T13:43:16;5.90;99.90
34558;DHT22;24708;48.888;8.736;2023-02-01T13:45:50;6.00;99.90
34558;DHT22;24708;48.888;8.736;2023-02-01T13:48:25;6.00;99.90
34558;DHT22;24708;48.888;8.736;2023-02-01T13:50:56;6.10;99.90
34558;DHT22;24708;48.888;8.736;2023-02-01T13:53:31;6.20;99.90
34558;DHT22;24708;48.888;8.736;2023-02-01T13:56:07;6.10;99.90
34558;DHT22;24708;48.888;8.736;2023-02-01T13:58:40;6.20;99.90
34558;DHT22;24708;48.888;8.736;2023-02-01T14:04:04;5.90;99.90
34558;DHT22;24708;48.888;8.736;2023-02-01T14:09:44;6.10;99.90
34558;DHT22;24708;48.888;8.736;2023-02-01T14:12:41;6.00;99.90
34558;DHT22;24708;48.888;8.736;2023-02-01T14:15:21;5.90;99.90
34558;DHT22;24708;48.888;8.736;2023-02-01T14:17:50;5.90;99.90
34558;DHT22;24708;48.888;8.736;2023-02-01T14:20:41;5.90;99.90
34558;DHT22;24708;48.888;8.736;2023-02-01T14:23:13;6.00;99.90
34558;DHT22;24708;48.888;8.736;2023-02-01T14:25:42;6.00;99.90
34558;DHT22;24708;48.888;8.736;2023-02-01T14:28:19;6.00;99.90
34558;DHT22;24708;48.888;8.736;2023-02-01T14:30:48;5.90;99.90
34558;DHT22;24708;48.888;8.736;2023-02-01T14:33:21;5.80;99.90
34558;DHT22;24708;48.888;8.736;2023-02-01T14:36:06;5.90;99.90
34558;DHT22;24708;48.888;8.736;2023-02-01T14:38:36;5.90;99.90
34558;DHT22;24708;48.888;8.736;2023-02-01T14:41:18;5.90;99.90
34558;DHT22;24708;48.888;8.736;2023-02-01T14:43:59;5.90;99.90
34558;DHT22;24708;48.888;8.736;2023-02-01T14:47:06;5.50;99.90
34558;DHT22;24708;48.888;8.736;2023-02-01T14:49:47;5.90;99.90
34558;DHT22;24708;48.888;8.736;2023-02-01T14:52:19;5.90;99.90
34558;DHT22;24708;48.888;8.736;2023-02-01T14:54:54;6.00;99.90
34558;DHT22;24708;48.888;8.736;2023-02-01T14:57:25;6.00;99.90
34558;DHT22;24708;48.888;8.736;2023-02-01T15:00:01;6.10;99.90
34558;DHT22;24708;48.888;8.736;2023-02-01T15:02:34;6.30;99.90
34558;DHT22;24708;48.888;8.736;2023-02-01T15:05:12;6.30;99.90
34558;DHT22;24708;48.888;8.736;2023-02-01T15:07:41;6.00;99.90
34558;DHT22;24708;48.888;8.736;2023-02-01T15:10:09;6.30;99.90
34558;DHT22;24708;48.888;8.736;2023-02-01T15:12:40;6.20;99.90
34558;DHT22;24708;48.888;8.736;2023-02-01T15:17:54;5.90;99.90
34558;DHT22;24708;48.888;8.736;2023-02-01T15:20:25;6.00;99.90
34558;DHT22;24708;48.888;8.736;2023-02-01T15:23:03;5.90;99.90
34558;DHT22;24708;48.888;8.736;2023-02-01T15:25:34;5.80;99.90
34558;DHT22;24708;48.888;8.736;2023-02-01T15:28:03;5.70;99.90
34558;DHT22;24708;48.888;8.736;2023-02-01T15:30:34;5.70;99.90
34558;DHT22;24708;48.888;8.736;2023-02-01T15:33:06;5.60;99.90
34558;DHT22;24708;48.888;8.736;2023-02-01T15:35:39;5.50;99.90
34558;DHT22;24708;48.888;8.736;2023-02-01T15:41:21;5.20;99.90
34558;DHT22;24708;48.888;8.736;2023-02-01T15:44:04;5.40;99.90
34558;DHT22;24708;48.888;8.736;2023-02-01T15:46:36;5.40;99.90
34558;DHT22;24708;48.888;8.736;2023-02-01T15:49:18;5.30;99.90
34558;DHT22;24708;48.888;8.736;2023-02-01T15:51:47;5.30;99.90
34558;DHT22;24708;48.888;8.736;2023-02-01T15:54:20;5.30;99.90
34558;DHT22;24708;48.888;8.736;2023-02-01T15:56:51;5.30;99.90
34558;DHT22;24708;48.888;8.736;2023-02-01T15:59:23;5.30;99.90
34558;DHT22;24708;48.888;8.736;2023-02-01T16:01:51;5.40;99.90
34558;DHT22;24708;48.888;8.736;2023-02-01T16:04:22;5.50;99.90
34558;DHT22;24708;48.888;8.736;2023-02-01T16:07:02;5.50;99.90
34558;DHT22;24708;48.888;8.736;2023-02-01T16:09:53;5.50;99.90
34558;DHT22;24708;48.888;8.736;2023-02-01T16:12:30;5.50;99.90
34558;DHT22;24708;48.888;8.736;2023-02-01T16:14:58;5.50;99.90
34558;DHT22;24708;48.888;8.736;2023-02-01T16:17:25;5.60;99.90
34558;DHT22;24708;48.888;8.736;2023-02-01T16:19:53;5.60;99.90
34558;DHT22;24708;48.888;8.736;2023-02-01T16:22:20;5.50;99.90
34558;DHT22;24708;48.888;8.736;2023-02-01T16:24:47;5.50;99.90
34558;DHT22;24708;48.888;8.736;2023-02-01T16:27:14;5.80;99.90
34558;DHT22;24708;48.888;8.736;2023-02-01T16:29:41;5.40;99.90
34558;DHT22;24708;48.888;8.736;2023-02-01T16:32:24;5.40;99.90
34558;DHT22;24708;48.888;8.736;2023-02-01T16:34:53;5.20;99.90
34558;DHT22;24708;48.888;8.736;2023-02-01T16:37:22;4.10;99.90
34558;DHT22;24708;48.888;8.736;2023-02-01T16:39:50;5.20;99.90
34558;DHT22;24708;48.888;8.736;2023-02-01T16:42:18;5.20;99.90
34558;DHT22;24708;48.888;8.736;2023-02-01T16:44:45;5.30;99.90
34558;DHT22;24708;48.888;8.736;2023-02-01T16:47:16;5.30;99.90
34558;DHT22;24708;48.888;8.736;2023-02-01T16:49:44;5.30;99.90
34558;DHT22;24708;48.888;8.736;2023-02-01T16:52:18;5.40;99.90
34558;DHT22;24708;48.888;8.736;2023-02-01T16:54:47;5.40;99.90
34558;DHT22;24708;48.888;8.736;2023-02-01T16:57:18;5.40;99.90
34558;DHT22;24708;48.888;8.736;2023-02-01T16:59:46;5.40;99.90
